Time;durP1;ratioP1;P1;durP2;ratioP2;P2;SDS_P1;SDS_P2;PMS_P1;PMS_P2;Temp;Humidity;BMP_temperature;BMP_pressure;BME280_temperature;BME280_humidity;BME280_pressure;Samples;Min_cycle;Max_cycle;Signal;HPM_P1;HPM_P2
2022/09/12 00:02:19;;;;;;;;;;;15.70;99.90;;;;;;5133905;27;19973;-62
2022/09/12 00:04:44;;;;;;;;;;;15.60;99.90;;;;;;5115283;27;20424;-64
2022/09/12 00:07:10;;;;;;;;;;;15.60;99.90;;;;;;5151986;27;19927;-61
2022/09/12 00:09:35;;;;;;;;;;;15.60;99.90;;;;;;5150639;27;19927;-61
2022/09/12 00:12:01;;;;;;;;;;;15.60;99.90;;;;;;5134253;27;19924;-61
2022/09/12 00:14:27;;;;;;;;;;;15.60;99.90;;;;;;5138849;27;19934;-62
2022/09/12 00:16:56;;;;;;;;;;;15.60;99.90;;;;;;5135615;27;19927;-61
2022/09/12 00:19:22;;;;;;;;;;;15.50;99.90;;;;;;5126680;27;19967;-62
2022/09/12 00:21:47;;;;;;;;;;;15.50;99.90;;;;;;5134554;27;19996;-65
2022/09/12 00:24:13;;;;;;;;;;;15.50;99.90;;;;;;5150602;27;19985;-61
2022/09/12 00:26:38;;;;;;;;;;;15.50;99.90;;;;;;5152205;27;20376;-62
2022/09/12 00:29:04;;;;;;;;;;;15.50;99.90;;;;;;5134801;27;19989;-62
2022/09/12 00:31:30;;;;;;;;;;;15.50;99.90;;;;;;5152377;27;20336;-62
2022/09/12 00:33:56;;;;;;;;;;;15.50;99.90;;;;;;5137596;27;19923;-62
2022/09/12 00:36:23;;;;;;;;;;;15.40;99.90;;;;;;5150922;27;19930;-62
2022/09/12 00:38:49;;;;;;;;;;;15.40;99.90;;;;;;5155671;27;19923;-62
2022/09/12 00:41:17;;;;;;;;;;;15.40;99.90;;;;;;5151836;27;19960;-62
2022/09/12 00:43:44;;;;;;;;;;;15.40;99.90;;;;;;5134735;27;19923;-62
2022/09/12 00:46:28;;;;;;;;;;;15.50;99.90;;;;;;5121302;27;19963;-62
2022/09/12 00:48:58;;;;;;;;;;;15.40;99.90;;;;;;5114258;28;20574;-65
2022/09/12 00:51:24;;;;;;;;;;;15.40;99.90;;;;;;5125534;27;19923;-62
2022/09/12 00:53:52;;;;;;;;;;;15.20;99.90;;;;;;5126925;27;20400;-62
2022/09/12 00:56:18;;;;;;;;;;;15.30;99.90;;;;;;5096202;28;19927;-62
2022/09/12 00:58:50;;;;;;;;;;;15.30;99.90;;;;;;5114347;28;19928;-61
2022/09/12 01:01:16;;;;;;;;;;;15.30;99.90;;;;;;5113575;27;19930;-61
2022/09/12 01:03:41;;;;;;;;;;;15.20;99.90;;;;;;5122458;27;20018;-62
2022/09/12 01:06:16;;;;;;;;;;;15.20;99.90;;;;;;5118769;27;20363;-62
2022/09/12 01:08:42;;;;;;;;;;;15.20;99.90;;;;;;5119214;27;19931;-61
2022/09/12 01:11:09;;;;;;;;;;;15.20;99.90;;;;;;5113424;27;19984;-61
2022/09/12 01:13:34;;;;;;;;;;;15.10;99.90;;;;;;5118446;27;20112;-61
2022/09/12 01:16:04;;;;;;;13.85;12.00;;;15.10;99.90;;;;;;5133930;27;19924;-62
2022/09/12 01:18:48;;;;;;;14.95;13.00;;;15.10;99.90;;;;;;5121153;27;20120;-61
2022/09/12 01:21:18;;;;;;;13.98;12.57;;;15.10;99.90;;;;;;5120553;27;20095;-61
2022/09/12 01:24:01;;;;;;;15.13;13.55;;;15.00;99.90;;;;;;5114515;27;20077;-61
2022/09/12 01:26:45;;;;;;;14.80;13.35;;;15.00;99.90;;;;;;5118383;27;20043;-61
2022/09/12 01:29:38;;;;;;;15.20;13.70;;;15.00;99.90;;;;;;5118594;27;20078;-61
2022/09/12 01:32:09;;;;;;;14.93;12.85;;;15.00;99.90;;;;;;5131269;27;20054;-61
2022/09/12 01:34:45;;;;;;;14.20;12.73;;;15.00;99.90;;;;;;5129521;27;20051;-62
2022/09/12 01:37:27;;;;;;;14.75;13.25;;;15.00;99.90;;;;;;5126777;27;20053;-61
2022/09/12 01:40:09;;;;;;;15.27;13.70;;;15.00;99.90;;;;;;5100736;27;20116;-61
2022/09/12 01:42:41;;;;;;;16.88;14.48;;;14.90;99.90;;;;;;5140915;27;20084;-61
2022/09/12 01:45:26;;;;;;;17.92;13.68;;;14.90;99.90;;;;;;5116673;27;20050;-61
2022/09/12 01:48:12;;;;;;;15.05;13.55;;;14.90;99.90;;;;;;5144759;27;20043;-62
2022/09/12 01:50:46;;;;;;;15.57;14.07;;;14.90;99.90;;;;;;5154236;27;20043;-62
2022/09/12 01:53:21;;;;;;;16.90;14.38;;;14.80;99.90;;;;;;5143638;27;20391;-62
2022/09/12 01:56:02;;;;;;;15.63;13.88;;;14.80;99.90;;;;;;5133614;27;20045;-62
2022/09/12 01:59:04;;;;;;;16.58;14.93;;;14.70;99.90;;;;;;5141037;27;20408;-61
2022/09/12 02:01:38;;;;;;;15.50;13.93;;;14.70;99.90;;;;;;5153107;27;20051;-61
2022/09/12 02:04:17;;;;;;;15.95;14.35;;;14.60;99.90;;;;;;5135192;27;20065;-61
2022/09/12 02:06:54;;;;;;;15.57;13.55;;;14.70;99.90;;;;;;5115639;27;20059;-61
2022/09/12 02:09:37;;;;;;;16.38;14.45;;;14.70;99.90;;;;;;5148400;27;20078;-62
2022/09/12 02:12:06;;;;;;;15.30;13.90;;;14.70;99.90;;;;;;5153672;27;20053;-62
2022/09/12 02:14:48;;;;;;;16.73;15.13;;;14.70;99.90;;;;;;5128026;27;20504;-62
2022/09/12 02:17:23;;;;;;;17.38;15.30;;;14.70;99.90;;;;;;5150601;27;20045;-62
2022/09/12 02:19:53;;;;;;;16.52;14.82;;;14.60;99.90;;;;;;5150952;27;20118;-62
2022/09/12 02:22:21;;;;;;;17.10;15.30;;;14.60;99.90;;;;;;5152898;27;20369;-62
2022/09/12 02:24:51;;;;;;;17.70;15.90;;;14.60;99.90;;;;;;5129030;27;20130;-61
2022/09/12 02:27:22;;;;;;;18.58;15.65;;;14.60;99.90;;;;;;5149211;27;20057;-61
2022/09/12 02:29:48;;;;;;;18.17;16.08;;;14.60;99.90;;;;;;5149025;27;20073;-62
2022/09/12 02:32:32;;;;;;;22.80;17.13;;;14.60;99.90;;;;;;5134031;27;20050;-62
2022/09/12 02:35:38;;;;;;;20.38;18.27;;;14.60;99.90;;;;;;5145304;27;20092;-62
2022/09/12 02:38:14;;;;;;;20.02;18.08;;;14.60;99.90;;;;;;5131009;27;20459;-62
2022/09/12 02:40:40;;;;;;;22.35;20.00;;;14.50;99.90;;;;;;5140422;27;20043;-62
2022/09/12 02:43:06;;;;;;;24.83;22.30;;;14.60;99.90;;;;;;5151110;27;20046;-62
2022/09/12 02:45:33;;;;;;;28.13;24.13;;;14.50;99.90;;;;;;5128358;27;20080;-63
2022/09/12 02:48:04;;;;;;;33.20;29.77;;;14.50;99.90;;;;;;5131022;27;20053;-62
2022/09/12 02:50:31;;;;;;;34.40;30.90;;;14.40;99.90;;;;;;5132375;27;20050;-62
2022/09/12 02:53:03;;;;;;;37.35;33.42;;;14.40;99.90;;;;;;5133992;27;20054;-62
2022/09/12 02:55:34;;;;;;;33.30;29.90;;;14.40;99.90;;;;;;5152919;27;20133;-62
2022/09/12 02:58:05;;;;;;;38.72;34.78;;;14.40;99.90;;;;;;5152856;27;20046;-62
2022/09/12 03:00:38;;;;;;;40.08;36.03;;;14.40;99.90;;;;;;5149317;27;20039;-62
2022/09/12 03:03:34;;;;;;;42.13;37.88;;;14.40;99.90;;;;;;5146865;27;20053;-62
2022/09/12 03:06:07;;;;;;;46.05;41.13;;;14.40;99.90;;;;;;5134858;27;20054;-64
2022/09/12 03:08:53;;;;;;;47.05;41.97;;;14.40;99.90;;;;;;5133412;27;20050;-62
2022/09/12 03:11:31;;;;;;;50.05;44.78;;;14.40;99.90;;;;;;5150371;27;20066;-62
2022/09/12 03:14:06;;;;;;;47.92;43.03;;;14.40;99.90;;;;;;5138299;27;20035;-62
2022/09/12 03:17:10;;;;;;;48.83;43.65;;;14.30;99.90;;;;;;5133970;27;20047;-61
2022/09/12 03:19:58;;;;;;;46.55;41.83;;;14.30;99.90;;;;;;5106874;27;20068;-62
2022/09/12 03:22:45;;;;;;;44.40;39.80;;;14.30;99.90;;;;;;5094869;27;20047;-61
2022/09/12 03:25:20;;;;;;;40.70;36.47;;;14.30;99.90;;;;;;5152394;27;20118;-62
2022/09/12 03:28:06;;;;;;;37.47;33.58;;;14.30;99.90;;;;;;5152209;27;20078;-62
2022/09/12 03:30:41;;;;;;;38.03;34.05;;;14.20;99.90;;;;;;5120583;27;20103;-62
2022/09/12 03:33:11;;;;;;;37.53;33.53;;;14.20;99.90;;;;;;5150374;27;20034;-61
2022/09/12 03:35:36;;;;;;;37.95;32.22;;;14.20;99.90;;;;;;5133694;27;20095;-62
2022/09/12 03:38:02;;;;;;;33.38;29.98;;;14.20;99.90;;;;;;5133057;27;20487;-62
2022/09/12 03:40:28;;;;;;;33.00;29.42;;;14.20;99.90;;;;;;5151535;27;20092;-61
2022/09/12 03:42:53;;;;;;;34.85;29.75;;;14.20;99.90;;;;;;5149308;27;20475;-61
2022/09/12 03:45:19;;;;;;;32.63;29.25;;;14.20;99.90;;;;;;5115152;27;20411;-61
2022/09/12 03:47:45;;;;;;;31.05;27.80;;;14.30;99.90;;;;;;5149703;27;20053;-62
2022/09/12 03:50:10;;;;;;;30.77;27.33;;;14.30;99.90;;;;;;5146722;27;20039;-62
2022/09/12 03:52:36;;;;;;;29.63;26.42;;;14.30;99.90;;;;;;5142755;27;20093;-62
2022/09/12 03:55:02;;;;;;;28.50;25.17;;;14.20;99.90;;;;;;5133437;27;20047;-62
2022/09/12 03:57:28;;;;;;;29.67;26.55;;;14.30;99.90;;;;;;5103549;28;20126;-62
2022/09/12 03:59:54;;;;;;;28.70;25.27;;;14.20;99.90;;;;;;5118808;27;20107;-62
2022/09/12 04:02:19;;;;;;;27.02;24.08;;;14.20;99.90;;;;;;5116448;27;20045;-62
2022/09/12 04:04:47;;;;;;;28.75;24.33;;;14.20;99.90;;;;;;5149902;27;20034;-62
2022/09/12 04:07:14;;;;;;;26.75;23.90;;;14.20;99.90;;;;;;5156227;27;20046;-62
2022/09/12 04:09:40;;;;;;;25.70;22.98;;;14.10;99.90;;;;;;5126296;27;20062;-62
2022/09/12 04:12:06;;;;;;;28.65;23.35;;;14.10;99.90;;;;;;5137256;27;20391;-63
2022/09/12 04:14:31;;;;;;;24.15;21.55;;;14.10;99.90;;;;;;5150136;27;20047;-62
2022/09/12 04:16:57;;;;;;;27.33;23.80;;;14.10;99.90;;;;;;5156430;27;20066;-62
2022/09/12 04:19:24;;;;;;;26.38;22.92;;;14.10;99.90;;;;;;5132664;27;20089;-61
2022/09/12 04:21:50;;;;;;;26.48;22.02;;;14.10;99.90;;;;;;5144154;27;20154;-61
2022/09/12 04:24:16;;;;;;;25.52;22.58;;;14.10;99.90;;;;;;5155327;27;20526;-61
2022/09/12 04:26:41;;;;;;;25.48;21.90;;;14.10;99.90;;;;;;5159026;27;20508;-61
2022/09/12 04:29:10;;;;;;;27.25;23.05;;;14.10;99.90;;;;;;5119278;27;20046;-61
2022/09/12 04:31:36;;;;;;;26.27;22.80;;;14.10;99.90;;;;;;5125029;27;20126;-61
2022/09/12 04:34:02;;;;;;;25.40;22.67;;;14.10;99.90;;;;;;5155692;27;20246;-61
2022/09/12 04:36:28;;;;;;;27.65;22.63;;;14.10;99.90;;;;;;5148444;27;20068;-61
2022/09/12 04:38:54;;;;;;;26.98;23.38;;;14.10;99.90;;;;;;5136757;27;20054;-61
2022/09/12 04:41:29;;;;;;;26.85;22.67;;;14.20;99.90;;;;;;5147587;27;20043;-62
2022/09/12 04:43:57;;;;;;;26.30;22.58;;;14.20;99.90;;;;;;5155036;27;20398;-62
2022/09/12 04:46:23;;;;;;;27.02;21.77;;;14.20;99.90;;;;;;5146338;27;20507;-61
2022/09/12 04:48:49;;;;;;;25.85;22.42;;;14.20;99.90;;;;;;5154339;27;20081;-61
2022/09/12 04:51:19;;;;;;;27.13;22.75;;;14.20;99.90;;;;;;5154038;27;20365;-61
2022/09/12 04:53:48;;;;;;;28.75;23.75;;;14.20;99.90;;;;;;5154838;27;20493;-61
2022/09/12 04:56:14;;;;;;;25.17;22.35;;;14.30;99.90;;;;;;5131861;27;20043;-61
2022/09/12 04:58:40;;;;;;;30.77;23.02;;;14.30;99.90;;;;;;5154576;27;20046;-61
2022/09/12 05:01:17;;;;;;;27.23;22.38;;;14.40;99.90;;;;;;5119160;27;20035;-61
2022/09/12 05:03:44;;;;;;;26.33;22.27;;;14.40;99.90;;;;;;5116838;27;20035;-61
2022/09/12 05:06:16;;;;;;;27.85;22.70;;;14.50;99.90;;;;;;5136684;27;20429;-61
2022/09/12 05:08:42;;;;;;;27.42;22.35;;;14.50;99.90;;;;;;5155881;27;20035;-61
2022/09/12 05:11:11;;;;;;;29.40;23.20;;;14.60;99.90;;;;;;5134075;27;20043;-61
2022/09/12 05:13:37;;;;;;;27.73;22.08;;;14.60;99.90;;;;;;5117793;27;20433;-64
2022/09/12 05:16:05;;;;;;;25.90;20.98;;;14.70;99.90;;;;;;5136139;27;20124;-61
2022/09/12 05:18:32;;;;;;;29.70;22.05;;;14.70;99.90;;;;;;5119605;27;20111;-61
2022/09/12 05:21:03;;;;;;;27.02;20.92;;;14.80;99.90;;;;;;5144437;27;20047;-61
2022/09/12 05:23:29;;;;;;;24.23;20.23;;;14.80;99.90;;;;;;5119932;27;20039;-62
2022/09/12 05:25:56;;;;;;;26.02;21.33;;;14.90;99.90;;;;;;5135246;27;20043;-62
2022/09/12 05:28:24;;;;;;;27.10;20.48;;;14.90;99.90;;;;;;5122841;27;20039;-62
2022/09/12 05:31:12;;;;;;;26.25;20.83;;;15.00;99.90;;;;;;5138572;27;20107;-62
2022/09/12 05:33:39;;;;;;;24.88;20.67;;;15.00;99.90;;;;;;5133725;27;20491;-62
2022/09/12 05:36:09;;;;;;;25.73;20.73;;;15.10;99.90;;;;;;5150790;27;20039;-62
2022/09/12 05:38:35;;;;;;;23.92;20.17;;;15.10;99.90;;;;;;5148967;27;20511;-63
2022/09/12 05:41:21;;;;;;;26.83;20.75;;;15.10;99.90;;;;;;5128016;27;20604;-63
2022/09/12 05:43:54;;;;;;;24.83;19.65;;;15.20;99.90;;;;;;5147043;27;20140;-63
2022/09/12 05:46:22;;;;;;;25.05;19.67;;;15.30;99.90;;;;;;5154039;27;20046;-62
2022/09/12 05:48:48;;;;;;;24.05;19.65;;;15.40;99.90;;;;;;5132303;27;20065;-62
2022/09/12 05:51:26;;;;;;;23.35;19.20;;;15.40;99.90;;;;;;5141799;27;20114;-62
2022/09/12 05:53:55;;;;;;;21.70;18.08;;;15.40;99.90;;;;;;5132682;27;20047;-62
2022/09/12 05:56:24;;;;;;;24.45;19.35;;;15.40;99.90;;;;;;5097575;27;20039;-62
2022/09/12 05:58:59;;;;;;;24.10;19.60;;;15.40;99.90;;;;;;5115410;27;20043;-61
2022/09/12 06:01:26;;;;;;;26.77;20.67;;;15.40;99.90;;;;;;5152524;27;20415;-61
2022/09/12 06:03:54;;;;;;;23.02;18.42;;;15.40;99.90;;;;;;5138773;27;20039;-61
2022/09/12 06:06:23;;;;;;;22.67;17.65;;;15.40;99.90;;;;;;5097367;27;20043;-61
2022/09/12 06:08:52;;;;;;;23.67;19.92;;;15.40;99.90;;;;;;5114069;27;20475;-61
2022/09/12 06:11:20;;;;;;;24.55;20.08;;;15.40;99.90;;;;;;5130336;27;20038;-61
2022/09/12 06:13:46;;;;;;;25.40;20.25;;;15.50;99.90;;;;;;5140063;27;20051;-64
2022/09/12 06:16:15;;;;;;;26.15;20.02;;;15.50;99.90;;;;;;5133721;27;20035;-61
2022/09/12 06:18:41;;;;;;;24.05;20.25;;;15.50;99.90;;;;;;5137192;27;20069;-61
2022/09/12 06:21:11;;;;;;;25.52;20.27;;;15.50;99.90;;;;;;5141945;27;20559;-61
2022/09/12 06:23:38;;;;;;;27.92;20.58;;;15.60;99.90;;;;;;5150231;27;20081;-62
2022/09/12 06:26:06;;;;;;;25.52;21.15;;;15.60;99.90;;;;;;5114816;27;20074;-62
2022/09/12 06:28:34;;;;;;;29.83;21.98;;;15.70;99.90;;;;;;5127959;27;20050;-61
2022/09/12 06:31:11;;;;;;;25.63;20.33;;;15.70;99.90;;;;;;5145408;27;20053;-61
2022/09/12 06:33:40;;;;;;;28.92;22.60;;;15.80;99.90;;;;;;5132661;27;20039;-61
2022/09/12 06:36:07;;;;;;;32.60;24.17;;;15.80;99.90;;;;;;5119094;27;20385;-62
2022/09/12 06:38:34;;;;;;;31.30;23.83;;;15.80;99.90;;;;;;5138911;27;20049;-62
2022/09/12 06:41:03;;;;;;;31.48;22.13;;;15.80;99.90;;;;;;5122586;27;20030;-61
2022/09/12 06:43:30;;;;;;;33.60;24.77;;;15.90;99.90;;;;;;5119559;27;20084;-61
2022/09/12 06:45:56;;;;;;;35.28;25.33;;;15.90;99.90;;;;;;5134515;27;20050;-64
2022/09/12 06:48:22;;;;;;;34.83;26.13;;;16.00;99.90;;;;;;5152880;27;20042;-62
2022/09/12 06:51:15;;;;;;;35.83;26.50;;;16.00;99.90;;;;;;5154107;27;20420;-62
2022/09/12 06:53:43;;;;;;;35.47;26.60;;;16.00;99.90;;;;;;5148840;27;20396;-62
2022/09/12 06:56:20;;;;;;;35.88;25.60;;;16.00;99.90;;;;;;5150689;27;20054;-61
2022/09/12 06:58:48;;;;;;;36.47;25.02;;;16.00;99.90;;;;;;5131203;27;20070;-61
2022/09/12 07:01:16;;;;;;;43.88;28.65;;;16.00;99.90;;;;;;5114169;27;20051;-62
2022/09/12 07:03:46;;;;;;;36.42;26.80;;;16.00;99.90;;;;;;5146086;27;20070;-62
2022/09/12 07:06:14;;;;;;;38.33;27.20;;;16.00;99.90;;;;;;5152073;27;20073;-65
2022/09/12 07:08:41;;;;;;;37.60;27.80;;;16.00;99.90;;;;;;5120251;27;20043;-62
2022/09/12 07:11:18;;;;;;;40.20;28.13;;;16.00;99.90;;;;;;5106752;27;20480;-61
2022/09/12 07:13:47;;;;;;;45.20;29.75;;;16.00;99.90;;;;;;5150354;27;20035;-60
2022/09/12 07:16:13;;;;;;;43.08;28.95;;;16.00;99.90;;;;;;5113155;27;20492;-61
2022/09/12 07:18:39;;;;;;;40.50;28.98;;;16.10;99.90;;;;;;5132693;27;20141;-60
2022/09/12 07:21:09;;;;;;;41.30;27.17;;;16.10;99.90;;;;;;5101634;27;20513;-59
2022/09/12 07:23:34;;;;;;;37.65;29.02;;;16.10;99.90;;;;;;5142894;27;20361;-60
2022/09/12 07:26:01;;;;;;;40.25;28.98;;;16.20;99.90;;;;;;5134132;27;20043;-60
2022/09/12 07:28:32;;;;;;;40.25;28.08;;;16.20;99.90;;;;;;5113594;27;20051;-59
2022/09/12 07:31:11;;;;;;;45.88;29.50;;;16.30;99.90;;;;;;5155148;27;20503;-60
2022/09/12 07:33:38;;;;;;;39.40;29.08;;;16.40;99.90;;;;;;5152706;27;20381;-61
2022/09/12 07:36:10;;;;;;;43.95;29.55;;;16.50;99.90;;;;;;5116577;27;20065;-62
2022/09/12 07:38:37;;;;;;;39.70;28.55;;;16.60;99.90;;;;;;5152364;27;20046;-62
2022/09/12 07:41:19;;;;;;;41.63;31.27;;;16.60;99.90;;;;;;5148407;27;20083;-60
2022/09/12 07:43:46;;;;;;;40.90;30.33;;;16.60;99.90;;;;;;5139421;27;20054;-61
2022/09/12 07:46:13;;;;;;;43.85;30.17;;;16.70;99.90;;;;;;5112450;27;20050;-61
2022/09/12 07:48:39;;;;;;;40.65;30.27;;;16.80;99.90;;;;;;5131475;27;20396;-60
2022/09/12 07:51:07;;;;;;;44.38;31.73;;;16.80;99.90;;;;;;5126667;27;20130;-61
2022/09/12 07:53:38;;;;;;;42.25;30.08;;;16.90;99.90;;;;;;5117171;27;20081;-61
2022/09/12 07:56:05;;;;;;;45.30;31.58;;;16.90;99.90;;;;;;5113432;28;20039;-60
2022/09/12 07:58:32;;;;;;;45.95;30.67;;;16.90;99.90;;;;;;5131281;27;20047;-60
2022/09/12 08:01:12;;;;;;;44.72;31.90;;;16.90;99.90;;;;;;5131285;27;20088;-65
2022/09/12 08:03:39;;;;;;;45.22;30.88;;;17.00;99.90;;;;;;5114665;27;20039;-61
2022/09/12 08:06:10;;;;;;;45.17;31.50;;;17.00;99.90;;;;;;5131062;27;20060;-60
2022/09/12 08:08:37;;;;;;;43.33;29.85;;;17.00;99.90;;;;;;5131204;27;20051;-60
2022/09/12 08:11:06;;;;;;;43.50;30.27;;;17.00;99.90;;;;;;5130999;27;20047;-61
2022/09/12 08:13:33;;;;;;;44.25;30.42;;;17.10;99.90;;;;;;5140850;27;20631;-60
2022/09/12 08:16:05;;;;;;;43.65;30.17;;;17.10;99.90;;;;;;5112846;27;20039;-61
2022/09/12 08:18:33;;;;;;;51.33;31.50;;;17.10;99.90;;;;;;5130890;27;20126;-60
2022/09/12 08:21:19;;;;;;;44.30;30.33;;;17.10;99.90;;;;;;5136959;27;20098;-60
2022/09/12 08:23:45;;;;;;;45.97;32.05;;;17.10;99.90;;;;;;5132668;27;20050;-61
2022/09/12 08:26:12;;;;;;;48.95;29.98;;;17.20;99.90;;;;;;5122510;27;20400;-61
2022/09/12 08:28:41;;;;;;;41.38;29.80;;;17.20;99.90;;;;;;5114463;27;20080;-61
2022/09/12 08:31:10;;;;;;;44.50;29.52;;;17.20;99.90;;;;;;5137500;27;20038;-61
2022/09/12 08:33:36;;;;;;;45.53;29.75;;;17.20;99.90;;;;;;5133299;27;20522;-59
2022/09/12 08:36:14;;;;;;;42.42;28.75;;;17.20;99.90;;;;;;5152961;27;20053;-59
2022/09/12 08:38:42;;;;;;;44.45;29.80;;;17.30;99.90;;;;;;5152024;27;20096;-61
2022/09/12 08:41:40;;;;;;;43.70;30.88;;;17.30;99.90;;;;;;5136627;27;20050;-60
2022/09/12 08:44:18;;;;;;;39.47;29.17;;;17.40;99.90;;;;;;5130943;27;20116;-59
2022/09/12 08:47:16;;;;;;;44.65;30.10;;;17.50;99.90;;;;;;5138142;27;20372;-60
2022/09/12 08:50:00;;;;;;;44.40;28.48;;;17.60;99.90;;;;;;5131956;27;20047;-59
2022/09/12 08:52:26;;;;;;;;;;;17.90;99.90;;;;;;5136333;27;20039;-60
2022/09/12 08:54:53;;;;;;;38.90;26.95;;;18.00;99.90;;;;;;5143965;27;20399;-59
2022/09/12 08:57:19;;;;;;;38.03;27.05;;;18.20;99.90;;;;;;5145717;27;20043;-60
2022/09/12 08:59:45;;;;;;;41.03;27.10;;;18.30;99.90;;;;;;5116091;27;20047;-60
2022/09/12 09:02:31;;;;;;;40.90;28.65;;;18.30;99.90;;;;;;5138016;27;20395;-60
2022/09/12 09:05:13;;;;;;;37.63;25.65;;;18.30;99.90;;;;;;5152562;27;20116;-60
2022/09/12 09:08:07;;;;;;;37.50;26.60;;;18.20;99.90;;;;;;5127317;27;20172;-61
2022/09/12 09:10:47;;;;;;;39.53;25.77;;;18.40;99.90;;;;;;5115736;27;20073;-60
2022/09/12 09:14:46;;;;;;;36.55;25.67;;;18.40;99.90;;;;;;5116788;27;20533;-60
2022/09/12 09:16:14;;;;;;;38.00;25.98;;;18.50;99.90;;;;;;5134434;27;20047;-60
2022/09/12 09:18:42;;;;;;;38.17;26.10;;;18.60;99.90;;;;;;5155296;27;20452;-60
2022/09/12 09:21:22;;;;;;;37.55;27.52;;;18.70;99.90;;;;;;5121744;27;20109;-61
2022/09/12 09:23:54;;;;;;;36.83;25.92;;;18.80;99.90;;;;;;5145877;27;20042;-62
2022/09/12 09:26:38;;;;;;;36.28;25.52;;;18.90;99.90;;;;;;5149792;27;20399;-61
2022/09/12 09:29:18;;;;;;;36.85;25.00;;;19.10;99.90;;;;;;5127395;27;20406;-62
2022/09/12 09:31:51;;;;;;;38.38;24.65;;;19.20;99.90;;;;;;5133296;27;20043;-62
2022/09/12 09:34:24;;;;;;;37.33;25.90;;;19.30;99.90;;;;;;5135390;27;20039;-61
2022/09/12 09:36:51;;;;;;;34.83;25.25;;;19.50;99.90;;;;;;5144595;27;20482;-60
2022/09/12 09:39:55;;;;;;;34.60;23.80;;;19.50;99.90;;;;;;5131006;27;20055;-62
2022/09/12 09:42:58;;;;;;;35.90;23.87;;;19.70;99.90;;;;;;5026238;28;20053;-60
2022/09/12 09:45:28;;;;;;;31.30;22.25;;;19.80;99.90;;;;;;5044845;28;20123;-59
2022/09/12 09:48:00;;;;;;;29.40;21.70;;;19.90;99.90;;;;;;5094668;27;20063;-60
2022/09/12 09:50:27;;;;;;;31.33;22.23;;;20.00;99.90;;;;;;5144980;27;20400;-61
2022/09/12 09:52:56;;;;;;;30.88;22.10;;;20.20;99.90;;;;;;5122556;27;20046;-61
2022/09/12 09:55:29;;;;;;;29.15;22.02;;;20.40;99.90;;;;;;5118077;27;20054;-62
2022/09/12 09:57:55;;;;;;;31.67;20.52;;;20.50;99.90;;;;;;5142996;27;20054;-66
2022/09/12 10:00:24;;;;;;;34.75;23.10;;;20.60;99.90;;;;;;5144201;27;20047;-61
2022/09/12 10:03:23;;;;;;;32.28;21.98;;;20.70;99.90;;;;;;5138462;27;20035;-61
2022/09/12 10:05:52;;;;;;;29.67;22.58;;;20.70;99.90;;;;;;5121566;27;20046;-61
2022/09/12 10:08:25;;;;;;;31.30;23.15;;;20.80;99.90;;;;;;5136669;27;20500;-60
2022/09/12 10:11:00;;;;;;;31.27;21.95;;;20.90;99.90;;;;;;5117311;27;20485;-61
2022/09/12 10:13:40;;;;;;;28.52;20.95;;;21.00;99.90;;;;;;5114923;27;20055;-61
2022/09/12 10:16:23;;;;;;;32.70;20.50;;;21.20;99.90;;;;;;5134745;27;20038;-61
2022/09/12 10:18:51;;;;;;;29.80;21.40;;;21.30;99.90;;;;;;5129835;27;20045;-64
2022/09/12 10:21:41;;;;;;;32.03;22.13;;;21.40;99.90;;;;;;5148121;27;20042;-65
2022/09/12 10:24:15;;;;;;;33.28;22.77;;;21.50;99.90;;;;;;5108775;27;20035;-61
2022/09/12 10:26:54;;;;;;;30.90;21.95;;;21.40;99.90;;;;;;5138733;27;20104;-60
2022/09/12 10:29:40;;;;;;;32.35;21.35;;;21.50;99.90;;;;;;5131485;27;20058;-61
2022/09/12 10:32:08;;;;;;;31.80;21.38;;;21.50;99.90;;;;;;5137846;27;20501;-61
2022/09/12 10:34:42;;;;;;;28.58;21.25;;;21.60;99.90;;;;;;5132438;27;20524;-61
2022/09/12 10:37:22;;;;;;;28.35;20.25;;;21.70;99.90;;;;;;5116889;27;20046;-61
2022/09/12 10:39:57;;;;;;;29.20;21.23;;;21.80;99.90;;;;;;5131188;27;20139;-61
2022/09/12 10:42:52;;;;;;;27.50;19.10;;;21.90;99.90;;;;;;5137743;27;20062;-63
2022/09/12 10:45:28;;;;;;;29.80;21.13;;;22.00;99.90;;;;;;5116415;27;20046;-62
2022/09/12 10:47:57;;;;;;;24.88;17.85;;;22.10;99.90;;;;;;5132055;27;20396;-61
2022/09/12 10:50:40;;;;;;;26.75;18.08;;;22.10;99.90;;;;;;5134379;27;20372;-60
2022/09/12 10:53:12;;;;;;;27.50;18.42;;;22.20;99.90;;;;;;5143721;27;20092;-61
2022/09/12 10:55:44;;;;;;;21.38;15.15;;;22.30;99.90;;;;;;5132392;27;20076;-61
2022/09/12 10:58:34;;;;;;;20.77;14.75;;;22.40;99.90;;;;;;5132090;27;20085;-61
2022/09/12 11:01:28;;;;;;;17.40;12.25;;;22.30;99.90;;;;;;5133025;27;20110;-62
2022/09/12 11:04:21;;;;;;;17.88;12.43;;;22.40;99.90;;;;;;5079703;27;20070;-62
2022/09/12 11:07:36;;;;;;;21.52;12.60;;;22.30;99.90;;;;;;5112907;27;20046;-65
2022/09/12 11:10:23;;;;;;;20.85;14.30;;;22.20;99.90;;;;;;5112493;27;20063;-61
2022/09/12 11:13:10;;;;;;;22.75;15.23;;;22.20;99.90;;;;;;5144633;27;20042;-60
2022/09/12 11:16:04;;;;;;;23.85;15.88;;;22.20;99.90;;;;;;5151856;27;20038;-62
2022/09/12 11:18:36;;;;;;;26.13;16.20;;;22.20;99.90;;;;;;5127397;27;20054;-60
2022/09/12 11:21:37;;;;;;;24.33;17.10;;;22.30;99.90;;;;;;5130942;27;20153;-62
2022/09/12 11:24:27;;;;;;;24.35;15.45;;;22.30;99.90;;;;;;5068137;28;20049;-62
2022/09/12 11:27:14;;;;;;;24.65;17.00;;;22.40;99.90;;;;;;5144205;27;20106;-61
2022/09/12 11:30:05;;;;;;;23.63;15.50;;;22.40;99.90;;;;;;5133248;27;20130;-61
2022/09/12 11:33:04;;;;;;;23.98;15.27;;;22.40;99.90;;;;;;5128160;27;20050;-61
2022/09/12 11:35:36;;;;;;;28.92;18.10;;;22.50;99.90;;;;;;5155295;27;20049;-61
2022/09/12 11:38:33;;;;;;;25.88;17.13;;;22.50;99.90;;;;;;5153595;27;20062;-62
2022/09/12 11:41:01;;;;;;;19.30;13.13;;;22.60;99.90;;;;;;5135795;27;20517;-61
2022/09/12 11:44:04;;;;;;;20.08;14.48;;;22.60;99.90;;;;;;5130660;27;20047;-64
2022/09/12 11:46:38;;;;;;;19.20;12.45;;;22.70;99.90;;;;;;5141839;27;20138;-61
2022/09/12 11:49:15;;;;;;;17.88;12.90;;;22.70;99.90;;;;;;5137689;27;20050;-61
2022/09/12 11:51:59;;;;;;;19.00;12.23;;;22.80;99.90;;;;;;5137595;27;20047;-61
2022/09/12 11:54:43;;;;;;;19.63;12.90;;;22.80;99.90;;;;;;5149446;27;20043;-62
2022/09/12 11:57:24;;;;;;;21.75;12.02;;;22.80;99.90;;;;;;5153271;27;20526;-62
2022/09/12 12:00:06;;;;;;;14.98;9.43;;;22.80;99.90;;;;;;5141196;27;20125;-61
2022/09/12 12:02:47;;;;;;;15.55;8.30;;;22.80;99.70;;;;;;5125438;28;20048;-60
2022/09/12 12:05:16;;;;;;;11.30;7.70;;;22.70;98.90;;;;;;5144167;27;20403;-61
2022/09/12 12:07:55;;;;;;;12.52;7.95;;;22.70;98.90;;;;;;5152410;27;20406;-61
2022/09/12 12:10:25;;;;;;;11.32;7.10;;;22.80;98.90;;;;;;5152245;27;20042;-62
2022/09/12 12:12:53;;;;;;;10.38;7.07;;;22.80;98.70;;;;;;5147916;27;20117;-60
2022/09/12 12:15:21;;;;;;;13.23;8.07;;;22.80;98.90;;;;;;5118028;28;20042;-61
2022/09/12 12:18:06;;;;;;;15.18;9.68;;;22.90;99.40;;;;;;5137660;27;20092;-61
2022/09/12 12:20:33;;;;;;;12.13;8.98;;;22.90;99.30;;;;;;5140014;27;20043;-61
2022/09/12 12:22:59;;;;;;;11.68;8.48;;;23.00;98.90;;;;;;5149779;27;20403;-60
2022/09/12 12:25:39;;;;;;;13.35;8.07;;;23.10;98.80;;;;;;5153942;27;20039;-62
2022/09/12 12:28:05;;;;;;;12.38;8.80;;;23.10;98.70;;;;;;5156938;27;20039;-62
2022/09/12 12:30:32;;;;;;;12.07;8.88;;;23.20;99.00;;;;;;5150813;27;20403;-66
2022/09/12 12:33:24;;;;;;;15.57;9.13;;;23.40;98.60;;;;;;5153910;27;20078;-59
2022/09/12 12:35:58;;;;;;;14.23;8.82;;;23.40;98.20;;;;;;5104249;27;20089;-65
2022/09/12 12:38:31;;;;;;;10.68;7.13;;;23.40;98.30;;;;;;5136707;27;20397;-60
2022/09/12 12:41:15;;;;;;;9.47;7.20;;;23.30;98.50;;;;;;5148104;27;20043;-60
2022/09/12 12:43:53;;;;;;;10.73;7.30;;;23.30;98.10;;;;;;5133799;27;20055;-60
2022/09/12 12:46:26;;;;;;;10.60;7.18;;;23.30;98.50;;;;;;5135366;27;20051;-60
2022/09/12 12:49:20;;;;;;;9.90;5.78;;;23.30;98.00;;;;;;5151342;27;20050;-61
2022/09/12 12:52:00;;;;;;;8.07;5.80;;;23.40;97.60;;;;;;5116198;27;20055;-61
2022/09/12 12:54:29;;;;;;;8.13;5.18;;;23.30;97.20;;;;;;5127683;27;20051;-61
2022/09/12 12:57:13;;;;;;;8.35;4.90;;;23.30;96.90;;;;;;5133457;27;20054;-63
2022/09/12 12:59:50;;;;;;;8.18;5.15;;;23.40;96.70;;;;;;5136910;27;20043;-64
2022/09/12 13:02:32;;;;;;;8.77;4.90;;;23.40;97.10;;;;;;5138017;27;20523;-62
2022/09/12 13:05:02;;;;;;;6.25;4.63;;;23.50;95.90;;;;;;5141153;27;20514;-62
2022/09/12 13:07:39;;;;;;;8.35;5.88;;;23.60;96.20;;;;;;5116144;27;20047;-62
2022/09/12 13:10:06;;;;;;;6.93;5.40;;;23.70;96.40;;;;;;5134471;27;20118;-61
2022/09/12 13:12:52;;;;;;;6.43;5.00;;;23.70;96.60;;;;;;5137514;27;20047;-62